sensor_id;sensor_type;location;lat;lon;timestamp;P1;durP1;ratioP1;P2;durP2;ratioP2
25913;SDS011;13718;50.922;5.346;2023-09-08T00:01:59;16.75;;;10.55;;
25913;SDS011;13718;50.922;5.346;2023-09-08T00:04:25;21.42;;;11.35;;
25913;SDS011;13718;50.922;5.346;2023-09-08T00:06:50;19.00;;;11.15;;
25913;SDS011;13718;50.922;5.346;2023-09-08T00:09:16;16.70;;;11.10;;
25913;SDS011;13718;50.922;5.346;2023-09-08T00:11:42;15.38;;;10.75;;
25913;SDS011;13718;50.922;5.346;2023-09-08T00:14:07;17.25;;;11.38;;
25913;SDS011;13718;50.922;5.346;2023-09-08T00:16:33;22.52;;;11.35;;
25913;SDS011;13718;50.922;5.346;2023-09-08T00:18:59;21.58;;;11.10;;
25913;SDS011;13718;50.922;5.346;2023-09-08T00:21:24;15.93;;;11.15;;
25913;SDS011;13718;50.922;5.346;2023-09-08T00:23:51;14.63;;;10.07;;
25913;SDS011;13718;50.922;5.346;2023-09-08T00:26:17;22.40;;;11.52;;
25913;SDS011;13718;50.922;5.346;2023-09-08T00:28:42;21.15;;;11.57;;
25913;SDS011;13718;50.922;5.346;2023-09-08T00:31:08;20.83;;;12.18;;
25913;SDS011;13718;50.922;5.346;2023-09-08T00:33:34;18.80;;;11.15;;
25913;SDS011;13718;50.922;5.346;2023-09-08T00:35:59;20.42;;;12.30;;
25913;SDS011;13718;50.922;5.346;2023-09-08T00:38:25;27.67;;;13.05;;
25913;SDS011;13718;50.922;5.346;2023-09-08T00:40:51;22.70;;;12.55;;
25913;SDS011;13718;50.922;5.346;2023-09-08T00:43:16;21.00;;;12.10;;
25913;SDS011;13718;50.922;5.346;2023-09-08T00:45:42;16.50;;;12.02;;
25913;SDS011;13718;50.922;5.346;2023-09-08T00:48:09;19.50;;;12.05;;
25913;SDS011;13718;50.922;5.346;2023-09-08T00:50:35;17.50;;;12.50;;
25913;SDS011;13718;50.922;5.346;2023-09-08T00:53:05;16.08;;;11.73;;
25913;SDS011;13718;50.922;5.346;2023-09-08T00:55:32;21.02;;;12.52;;
25913;SDS011;13718;50.922;5.346;2023-09-08T00:57:58;18.20;;;11.85;;
25913;SDS011;13718;50.922;5.346;2023-09-08T01:00:24;17.25;;;10.82;;
25913;SDS011;13718;50.922;5.346;2023-09-08T01:02:51;16.45;;;12.07;;
25913;SDS011;13718;50.922;5.346;2023-09-08T01:05:16;19.15;;;11.57;;
25913;SDS011;13718;50.922;5.346;2023-09-08T01:07:42;20.38;;;11.82;;
25913;SDS011;13718;50.922;5.346;2023-09-08T01:10:09;17.42;;;11.38;;
25913;SDS011;13718;50.922;5.346;2023-09-08T01:12:35;18.38;;;11.45;;
25913;SDS011;13718;50.922;5.346;2023-09-08T01:15:01;15.55;;;11.10;;
25913;SDS011;13718;50.922;5.346;2023-09-08T01:17:27;19.50;;;12.23;;
25913;SDS011;13718;50.922;5.346;2023-09-08T01:19:56;17.23;;;11.35;;
25913;SDS011;13718;50.922;5.346;2023-09-08T01:22:51;16.02;;;11.38;;
25913;SDS011;13718;50.922;5.346;2023-09-08T01:25:32;16.10;;;10.90;;
25913;SDS011;13718;50.922;5.346;2023-09-08T01:28:05;17.55;;;11.07;;
25913;SDS011;13718;50.922;5.346;2023-09-08T01:30:31;17.42;;;11.88;;
25913;SDS011;13718;50.922;5.346;2023-09-08T01:32:58;17.77;;;12.27;;
25913;SDS011;13718;50.922;5.346;2023-09-08T01:35:25;17.63;;;12.73;;
25913;SDS011;13718;50.922;5.346;2023-09-08T01:37:50;19.90;;;12.98;;
25913;SDS011;13718;50.922;5.346;2023-09-08T01:40:16;21.40;;;12.93;;
25913;SDS011;13718;50.922;5.346;2023-09-08T01:42:44;20.73;;;13.18;;
25913;SDS011;13718;50.922;5.346;2023-09-08T01:45:10;20.38;;;12.80;;
25913;SDS011;13718;50.922;5.346;2023-09-08T01:47:36;18.58;;;12.48;;
25913;SDS011;13718;50.922;5.346;2023-09-08T01:50:01;19.35;;;12.27;;
25913;SDS011;13718;50.922;5.346;2023-09-08T01:52:27;17.63;;;12.13;;
25913;SDS011;13718;50.922;5.346;2023-09-08T01:54:53;18.30;;;12.02;;
25913;SDS011;13718;50.922;5.346;2023-09-08T01:57:18;18.65;;;12.10;;
25913;SDS011;13718;50.922;5.346;2023-09-08T01:59:44;18.10;;;12.50;;
25913;SDS011;13718;50.922;5.346;2023-09-08T02:02:13;21.75;;;13.45;;
25913;SDS011;13718;50.922;5.346;2023-09-08T02:04:39;18.83;;;12.65;;
25913;SDS011;13718;50.922;5.346;2023-09-08T02:07:05;20.60;;;13.35;;
25913;SDS011;13718;50.922;5.346;2023-09-08T02:09:31;21.00;;;12.95;;
25913;SDS011;13718;50.922;5.346;2023-09-08T02:12:01;20.83;;;12.88;;
25913;SDS011;13718;50.922;5.346;2023-09-08T02:14:27;20.10;;;13.85;;
25913;SDS011;13718;50.922;5.346;2023-09-08T02:16:53;17.92;;;11.60;;
25913;SDS011;13718;50.922;5.346;2023-09-08T02:19:19;27.08;;;14.23;;
25913;SDS011;13718;50.922;5.346;2023-09-08T02:21:45;21.92;;;13.77;;
25913;SDS011;13718;50.922;5.346;2023-09-08T02:24:11;21.42;;;13.90;;
25913;SDS011;13718;50.922;5.346;2023-09-08T02:26:37;21.02;;;13.45;;
25913;SDS011;13718;50.922;5.346;2023-09-08T02:29:03;21.92;;;13.82;;
25913;SDS011;13718;50.922;5.346;2023-09-08T02:31:29;19.70;;;13.10;;
25913;SDS011;13718;50.922;5.346;2023-09-08T02:33:54;19.67;;;13.05;;
25913;SDS011;13718;50.922;5.346;2023-09-08T02:36:20;18.95;;;13.00;;
25913;SDS011;13718;50.922;5.346;2023-09-08T02:38:50;15.85;;;12.15;;
25913;SDS011;13718;50.922;5.346;2023-09-08T02:41:16;21.38;;;12.95;;
25913;SDS011;13718;50.922;5.346;2023-09-08T02:43:42;20.45;;;12.73;;
25913;SDS011;13718;50.922;5.346;2023-09-08T02:46:07;18.85;;;12.30;;
25913;SDS011;13718;50.922;5.346;2023-09-08T02:48:34;20.70;;;12.93;;
25913;SDS011;13718;50.922;5.346;2023-09-08T02:51:00;22.33;;;14.45;;
25913;SDS011;13718;50.922;5.346;2023-09-08T02:53:25;22.58;;;13.60;;
25913;SDS011;13718;50.922;5.346;2023-09-08T02:55:53;20.25;;;13.02;;
25913;SDS011;13718;50.922;5.346;2023-09-08T02:58:19;19.17;;;13.25;;
25913;SDS011;13718;50.922;5.346;2023-09-08T03:00:45;24.05;;;13.55;;
25913;SDS011;13718;50.922;5.346;2023-09-08T03:03:11;20.30;;;13.70;;
25913;SDS011;13718;50.922;5.346;2023-09-08T03:05:36;24.42;;;14.32;;
25913;SDS011;13718;50.922;5.346;2023-09-08T03:08:02;23.65;;;14.38;;
25913;SDS011;13718;50.922;5.346;2023-09-08T03:10:28;18.85;;;13.65;;
25913;SDS011;13718;50.922;5.346;2023-09-08T03:12:54;19.63;;;13.95;;
25913;SDS011;13718;50.922;5.346;2023-09-08T03:15:20;17.10;;;13.52;;
25913;SDS011;13718;50.922;5.346;2023-09-08T03:17:45;18.02;;;12.05;;
25913;SDS011;13718;50.922;5.346;2023-09-08T03:20:11;18.35;;;13.13;;
25913;SDS011;13718;50.922;5.346;2023-09-08T03:22:38;20.02;;;13.48;;
25913;SDS011;13718;50.922;5.346;2023-09-08T03:25:04;19.38;;;13.50;;
25913;SDS011;13718;50.922;5.346;2023-09-08T03:27:30;18.98;;;13.75;;
25913;SDS011;13718;50.922;5.346;2023-09-08T03:29:55;20.58;;;14.27;;
25913;SDS011;13718;50.922;5.346;2023-09-08T03:32:21;21.42;;;14.38;;
25913;SDS011;13718;50.922;5.346;2023-09-08T03:34:46;18.92;;;13.07;;
25913;SDS011;13718;50.922;5.346;2023-09-08T03:37:12;19.33;;;13.77;;
25913;SDS011;13718;50.922;5.346;2023-09-08T03:39:37;20.48;;;13.88;;
25913;SDS011;13718;50.922;5.346;2023-09-08T03:42:03;22.48;;;13.63;;
25913;SDS011;13718;50.922;5.346;2023-09-08T03:44:28;21.88;;;14.07;;
25913;SDS011;13718;50.922;5.346;2023-09-08T03:46:54;20.30;;;14.43;;
25913;SDS011;13718;50.922;5.346;2023-09-08T03:49:20;20.95;;;14.55;;
25913;SDS011;13718;50.922;5.346;2023-09-08T03:51:45;22.92;;;15.10;;
25913;SDS011;13718;50.922;5.346;2023-09-08T03:54:11;27.25;;;18.83;;
25913;SDS011;13718;50.922;5.346;2023-09-08T03:56:36;26.77;;;16.27;;
25913;SDS011;13718;50.922;5.346;2023-09-08T03:59:02;26.13;;;15.50;;
25913;SDS011;13718;50.922;5.346;2023-09-08T04:01:27;26.08;;;15.38;;
25913;SDS011;13718;50.922;5.346;2023-09-08T04:03:53;24.13;;;17.80;;
25913;SDS011;13718;50.922;5.346;2023-09-08T04:06:18;24.67;;;17.10;;
25913;SDS011;13718;50.922;5.346;2023-09-08T04:08:44;25.67;;;16.02;;
25913;SDS011;13718;50.922;5.346;2023-09-08T04:11:09;20.05;;;15.30;;
25913;SDS011;13718;50.922;5.346;2023-09-08T04:13:35;24.02;;;16.00;;
25913;SDS011;13718;50.922;5.346;2023-09-08T04:16:00;25.65;;;16.73;;
25913;SDS011;13718;50.922;5.346;2023-09-08T04:18:26;26.95;;;17.08;;
25913;SDS011;13718;50.922;5.346;2023-09-08T04:20:52;23.75;;;16.23;;
25913;SDS011;13718;50.922;5.346;2023-09-08T04:23:17;24.33;;;16.38;;
25913;SDS011;13718;50.922;5.346;2023-09-08T04:25:43;24.45;;;16.23;;
25913;SDS011;13718;50.922;5.346;2023-09-08T04:28:08;25.92;;;15.55;;
25913;SDS011;13718;50.922;5.346;2023-09-08T04:30:34;25.35;;;16.92;;
25913;SDS011;13718;50.922;5.346;2023-09-08T04:32:59;20.15;;;15.75;;
25913;SDS011;13718;50.922;5.346;2023-09-08T04:35:25;25.40;;;16.30;;
25913;SDS011;13718;50.922;5.346;2023-09-08T04:37:51;27.40;;;16.92;;
25913;SDS011;13718;50.922;5.346;2023-09-08T04:40:16;23.40;;;16.60;;
25913;SDS011;13718;50.922;5.346;2023-09-08T04:42:42;27.20;;;17.17;;
25913;SDS011;13718;50.922;5.346;2023-09-08T04:45:07;25.33;;;15.95;;
25913;SDS011;13718;50.922;5.346;2023-09-08T04:47:33;23.27;;;16.83;;
25913;SDS011;13718;50.922;5.346;2023-09-08T04:49:59;30.48;;;18.08;;
25913;SDS011;13718;50.922;5.346;2023-09-08T04:52:24;28.75;;;17.95;;
25913;SDS011;13718;50.922;5.346;2023-09-08T04:54:50;28.67;;;19.02;;
25913;SDS011;13718;50.922;5.346;2023-09-08T04:57:15;29.52;;;19.23;;
25913;SDS011;13718;50.922;5.346;2023-09-08T04:59:41;27.17;;;18.75;;
25913;SDS011;13718;50.922;5.346;2023-09-08T05:02:06;29.90;;;18.27;;
25913;SDS011;13718;50.922;5.346;2023-09-08T05:04:32;30.77;;;19.85;;
25913;SDS011;13718;50.922;5.346;2023-09-08T05:06:57;30.83;;;20.35;;
25913;SDS011;13718;50.922;5.346;2023-09-08T05:09:23;32.17;;;19.67;;
25913;SDS011;13718;50.922;5.346;2023-09-08T05:11:48;31.52;;;19.52;;
25913;SDS011;13718;50.922;5.346;2023-09-08T05:14:14;28.98;;;20.98;;
25913;SDS011;13718;50.922;5.346;2023-09-08T05:16:39;29.73;;;20.83;;
25913;SDS011;13718;50.922;5.346;2023-09-08T05:19:11;30.15;;;21.90;;
25913;SDS011;13718;50.922;5.346;2023-09-08T05:21:38;33.08;;;20.50;;
25913;SDS011;13718;50.922;5.346;2023-09-08T05:24:04;33.00;;;21.10;;
25913;SDS011;13718;50.922;5.346;2023-09-08T05:26:30;26.33;;;19.75;;
25913;SDS011;13718;50.922;5.346;2023-09-08T05:28:56;31.45;;;21.55;;
25913;SDS011;13718;50.922;5.346;2023-09-08T05:31:22;32.35;;;20.05;;
25913;SDS011;13718;50.922;5.346;2023-09-08T05:33:47;29.00;;;20.25;;
25913;SDS011;13718;50.922;5.346;2023-09-08T05:36:13;32.42;;;20.45;;
25913;SDS011;13718;50.922;5.346;2023-09-08T05:38:38;29.70;;;19.42;;
25913;SDS011;13718;50.922;5.346;2023-09-08T05:41:04;26.73;;;18.65;;
25913;SDS011;13718;50.922;5.346;2023-09-08T05:43:29;25.60;;;18.65;;
25913;SDS011;13718;50.922;5.346;2023-09-08T05:45:55;29.10;;;18.73;;
25913;SDS011;13718;50.922;5.346;2023-09-08T05:48:21;25.90;;;17.23;;
25913;SDS011;13718;50.922;5.346;2023-09-08T05:50:46;23.00;;;17.10;;
25913;SDS011;13718;50.922;5.346;2023-09-08T05:53:12;25.75;;;17.70;;
25913;SDS011;13718;50.922;5.346;2023-09-08T05:55:37;27.20;;;17.10;;
25913;SDS011;13718;50.922;5.346;2023-09-08T05:58:03;24.42;;;16.67;;
25913;SDS011;13718;50.922;5.346;2023-09-08T06:00:28;26.77;;;16.70;;
25913;SDS011;13718;50.922;5.346;2023-09-08T06:02:54;25.23;;;16.60;;
25913;SDS011;13718;50.922;5.346;2023-09-08T06:05:19;27.90;;;17.48;;
25913;SDS011;13718;50.922;5.346;2023-09-08T06:07:45;26.60;;;16.73;;
25913;SDS011;13718;50.922;5.346;2023-09-08T06:10:11;23.38;;;17.13;;
25913;SDS011;13718;50.922;5.346;2023-09-08T06:12:36;26.80;;;15.65;;
25913;SDS011;13718;50.922;5.346;2023-09-08T06:15:02;22.63;;;14.70;;
25913;SDS011;13718;50.922;5.346;2023-09-08T06:17:28;20.80;;;14.40;;
25913;SDS011;13718;50.922;5.346;2023-09-08T06:19:54;23.17;;;14.38;;
25913;SDS011;13718;50.922;5.346;2023-09-08T06:22:19;20.23;;;14.60;;
25913;SDS011;13718;50.922;5.346;2023-09-08T06:24:45;26.27;;;14.73;;
25913;SDS011;13718;50.922;5.346;2023-09-08T06:27:10;24.35;;;14.40;;
25913;SDS011;13718;50.922;5.346;2023-09-08T06:29:36;23.85;;;14.52;;
25913;SDS011;13718;50.922;5.346;2023-09-08T06:32:03;24.15;;;14.90;;
25913;SDS011;13718;50.922;5.346;2023-09-08T06:34:29;23.33;;;14.77;;
25913;SDS011;13718;50.922;5.346;2023-09-08T06:36:54;20.02;;;14.10;;
25913;SDS011;13718;50.922;5.346;2023-09-08T06:39:20;23.40;;;13.88;;
25913;SDS011;13718;50.922;5.346;2023-09-08T06:41:45;18.40;;;13.68;;
25913;SDS011;13718;50.922;5.346;2023-09-08T06:44:11;25.25;;;13.82;;
25913;SDS011;13718;50.922;5.346;2023-09-08T06:46:36;19.45;;;13.30;;
25913;SDS011;13718;50.922;5.346;2023-09-08T06:49:02;19.95;;;14.30;;
25913;SDS011;13718;50.922;5.346;2023-09-08T06:51:27;21.40;;;14.13;;
25913;SDS011;13718;50.922;5.346;2023-09-08T06:53:54;19.95;;;14.30;;
25913;SDS011;13718;50.922;5.346;2023-09-08T06:56:21;21.38;;;14.20;;
25913;SDS011;13718;50.922;5.346;2023-09-08T06:58:47;20.40;;;13.73;;
25913;SDS011;13718;50.922;5.346;2023-09-08T07:01:12;23.15;;;14.18;;
25913;SDS011;13718;50.922;5.346;2023-09-08T07:03:38;23.02;;;13.63;;
25913;SDS011;13718;50.922;5.346;2023-09-08T07:06:03;19.63;;;13.68;;
25913;SDS011;13718;50.922;5.346;2023-09-08T07:08:29;21.45;;;13.90;;
25913;SDS011;13718;50.922;5.346;2023-09-08T07:10:54;26.10;;;14.52;;
25913;SDS011;13718;50.922;5.346;2023-09-08T07:13:20;19.48;;;13.88;;
25913;SDS011;13718;50.922;5.346;2023-09-08T07:15:46;22.92;;;13.80;;
25913;SDS011;13718;50.922;5.346;2023-09-08T07:18:11;52.53;;;15.40;;
25913;SDS011;13718;50.922;5.346;2023-09-08T07:20:37;22.63;;;13.45;;
25913;SDS011;13718;50.922;5.346;2023-09-08T07:23:02;21.20;;;14.15;;
25913;SDS011;13718;50.922;5.346;2023-09-08T07:25:28;19.95;;;13.48;;
25913;SDS011;13718;50.922;5.346;2023-09-08T07:27:53;21.55;;;13.07;;
25913;SDS011;13718;50.922;5.346;2023-09-08T07:30:20;20.00;;;13.73;;
25913;SDS011;13718;50.922;5.346;2023-09-08T07:32:46;16.73;;;13.30;;
25913;SDS011;13718;50.922;5.346;2023-09-08T07:35:11;21.73;;;13.07;;
25913;SDS011;13718;50.922;5.346;2023-09-08T07:37:39;20.25;;;13.85;;
25913;SDS011;13718;50.922;5.346;2023-09-08T07:40:06;19.08;;;13.32;;
25913;SDS011;13718;50.922;5.346;2023-09-08T07:42:34;19.45;;;12.00;;
25913;SDS011;13718;50.922;5.346;2023-09-08T07:44:59;18.77;;;12.68;;
25913;SDS011;13718;50.922;5.346;2023-09-08T07:47:25;18.30;;;12.20;;
25913;SDS011;13718;50.922;5.346;2023-09-08T07:49:50;24.30;;;13.23;;
25913;SDS011;13718;50.922;5.346;2023-09-08T07:52:16;18.15;;;11.90;;
25913;SDS011;13718;50.922;5.346;2023-09-08T07:54:41;19.42;;;10.57;;
25913;SDS011;13718;50.922;5.346;2023-09-08T07:57:07;17.20;;;10.07;;
25913;SDS011;13718;50.922;5.346;2023-09-08T07:59:33;15.07;;;8.88;;
25913;SDS011;13718;50.922;5.346;2023-09-08T08:01:59;14.30;;;9.20;;
25913;SDS011;13718;50.922;5.346;2023-09-08T08:04:25;13.43;;;8.57;;
25913;SDS011;13718;50.922;5.346;2023-09-08T08:06:51;14.52;;;8.88;;
25913;SDS011;13718;50.922;5.346;2023-09-08T08:09:16;15.48;;;8.55;;
25913;SDS011;13718;50.922;5.346;2023-09-08T08:11:42;11.88;;;7.32;;
25913;SDS011;13718;50.922;5.346;2023-09-08T08:14:07;11.82;;;7.53;;
25913;SDS011;13718;50.922;5.346;2023-09-08T08:16:33;13.38;;;7.10;;
25913;SDS011;13718;50.922;5.346;2023-09-08T08:18:59;10.80;;;6.63;;
25913;SDS011;13718;50.922;5.346;2023-09-08T08:21:25;15.65;;;6.47;;
25913;SDS011;13718;50.922;5.346;2023-09-08T08:23:50;12.40;;;6.38;;
25913;SDS011;13718;50.922;5.346;2023-09-08T08:26:16;12.95;;;6.50;;
25913;SDS011;13718;50.922;5.346;2023-09-08T08:28:43;13.55;;;6.63;;
25913;SDS011;13718;50.922;5.346;2023-09-08T08:31:08;13.32;;;6.75;;
25913;SDS011;13718;50.922;5.346;2023-09-08T08:33:34;10.05;;;5.72;;
25913;SDS011;13718;50.922;5.346;2023-09-08T08:36:00;12.95;;;6.70;;
25913;SDS011;13718;50.922;5.346;2023-09-08T08:38:26;10.95;;;5.63;;
25913;SDS011;13718;50.922;5.346;2023-09-08T08:40:51;12.30;;;6.60;;
25913;SDS011;13718;50.922;5.346;2023-09-08T08:43:17;8.57;;;6.13;;
25913;SDS011;13718;50.922;5.346;2023-09-08T08:45:43;9.40;;;5.93;;
25913;SDS011;13718;50.922;5.346;2023-09-08T08:48:09;9.73;;;6.30;;
25913;SDS011;13718;50.922;5.346;2023-09-08T08:50:38;12.65;;;6.93;;
25913;SDS011;13718;50.922;5.346;2023-09-08T08:53:06;7.38;;;6.03;;
25913;SDS011;13718;50.922;5.346;2023-09-08T08:55:34;8.57;;;6.40;;
25913;SDS011;13718;50.922;5.346;2023-09-08T08:58:05;12.40;;;7.00;;
25913;SDS011;13718;50.922;5.346;2023-09-08T09:00:33;7.78;;;6.20;;
25913;SDS011;13718;50.922;5.346;2023-09-08T09:03:01;10.45;;;6.45;;
25913;SDS011;13718;50.922;5.346;2023-09-08T09:05:29;10.45;;;6.25;;
25913;SDS011;13718;50.922;5.346;2023-09-08T09:07:56;10.43;;;6.35;;
25913;SDS011;13718;50.922;5.346;2023-09-08T09:10:23;9.95;;;6.43;;
25913;SDS011;13718;50.922;5.346;2023-09-08T09:12:49;11.27;;;6.18;;
25913;SDS011;13718;50.922;5.346;2023-09-08T09:15:14;12.95;;;6.95;;
25913;SDS011;13718;50.922;5.346;2023-09-08T09:17:41;13.98;;;6.75;;
25913;SDS011;13718;50.922;5.346;2023-09-08T09:20:13;9.90;;;6.50;;
25913;SDS011;13718;50.922;5.346;2023-09-08T09:22:40;10.00;;;6.30;;
25913;SDS011;13718;50.922;5.346;2023-09-08T09:25:06;10.80;;;6.80;;
25913;SDS011;13718;50.922;5.346;2023-09-08T09:27:32;11.30;;;7.10;;
25913;SDS011;13718;50.922;5.346;2023-09-08T09:30:02;12.23;;;7.10;;
25913;SDS011;13718;50.922;5.346;2023-09-08T09:32:28;11.27;;;7.25;;
25913;SDS011;13718;50.922;5.346;2023-09-08T09:34:56;12.18;;;6.78;;
25913;SDS011;13718;50.922;5.346;2023-09-08T09:37:22;12.48;;;7.55;;
25913;SDS011;13718;50.922;5.346;2023-09-08T09:39:52;12.27;;;7.45;;
25913;SDS011;13718;50.922;5.346;2023-09-08T09:42:19;12.00;;;7.97;;
25913;SDS011;13718;50.922;5.346;2023-09-08T09:44:48;14.80;;;7.70;;
25913;SDS011;13718;50.922;5.346;2023-09-08T09:47:16;13.20;;;7.10;;
25913;SDS011;13718;50.922;5.346;2023-09-08T09:49:45;10.05;;;7.18;;
25913;SDS011;13718;50.922;5.346;2023-09-08T09:52:12;16.05;;;7.90;;
25913;SDS011;13718;50.922;5.346;2023-09-08T09:54:39;16.08;;;7.55;;
25913;SDS011;13718;50.922;5.346;2023-09-08T09:57:06;10.93;;;7.50;;
25913;SDS011;13718;50.922;5.346;2023-09-08T09:59:34;13.55;;;7.65;;
25913;SDS011;13718;50.922;5.346;2023-09-08T10:01:59;11.35;;;7.53;;
25913;SDS011;13718;50.922;5.346;2023-09-08T10:04:25;13.35;;;7.40;;
25913;SDS011;13718;50.922;5.346;2023-09-08T10:06:52;12.10;;;7.38;;
25913;SDS011;13718;50.922;5.346;2023-09-08T10:09:19;15.75;;;7.80;;
25913;SDS011;13718;50.922;5.346;2023-09-08T10:11:46;15.23;;;7.82;;
25913;SDS011;13718;50.922;5.346;2023-09-08T10:14:13;12.63;;;7.72;;
25913;SDS011;13718;50.922;5.346;2023-09-08T10:16:40;15.65;;;8.18;;
25913;SDS011;13718;50.922;5.346;2023-09-08T10:19:09;13.18;;;8.13;;
25913;SDS011;13718;50.922;5.346;2023-09-08T10:21:38;8.40;;;7.22;;
25913;SDS011;13718;50.922;5.346;2023-09-08T10:24:08;13.57;;;7.80;;
25913;SDS011;13718;50.922;5.346;2023-09-08T10:26:43;10.35;;;7.47;;
25913;SDS011;13718;50.922;5.346;2023-09-08T10:29:11;12.15;;;7.15;;
25913;SDS011;13718;50.922;5.346;2023-09-08T10:31:38;11.82;;;7.43;;
25913;SDS011;13718;50.922;5.346;2023-09-08T10:34:04;13.55;;;7.90;;
25913;SDS011;13718;50.922;5.346;2023-09-08T10:36:30;15.32;;;7.50;;
25913;SDS011;13718;50.922;5.346;2023-09-08T10:39:18;9.38;;;6.78;;
25913;SDS011;13718;50.922;5.346;2023-09-08T10:47:19;9.43;;;6.95;;
25913;SDS011;13718;50.922;5.346;2023-09-08T10:49:48;15.43;;;7.18;;
25913;SDS011;13718;50.922;5.346;2023-09-08T10:52:18;11.82;;;7.63;;
25913;SDS011;13718;50.922;5.346;2023-09-08T10:54:50;10.88;;;7.70;;
25913;SDS011;13718;50.922;5.346;2023-09-08T10:57:18;11.57;;;7.13;;
25913;SDS011;13718;50.922;5.346;2023-09-08T10:59:55;12.50;;;8.30;;
25913;SDS011;13718;50.922;5.346;2023-09-08T11:05:13;13.18;;;8.75;;
25913;SDS011;13718;50.922;5.346;2023-09-08T11:07:40;11.00;;;7.53;;
25913;SDS011;13718;50.922;5.346;2023-09-08T11:10:07;12.20;;;6.35;;
25913;SDS011;13718;50.922;5.346;2023-09-08T11:12:33;9.55;;;6.20;;
25913;SDS011;13718;50.922;5.346;2023-09-08T11:15:01;8.13;;;5.95;;
25913;SDS011;13718;50.922;5.346;2023-09-08T11:17:33;11.25;;;6.50;;
25913;SDS011;13718;50.922;5.346;2023-09-08T11:20:01;16.10;;;6.10;;
25913;SDS011;13718;50.922;5.346;2023-09-08T11:22:33;10.65;;;6.60;;
25913;SDS011;13718;50.922;5.346;2023-09-08T11:25:00;12.60;;;6.18;;
25913;SDS011;13718;50.922;5.346;2023-09-08T11:27:29;11.18;;;6.28;;
25913;SDS011;13718;50.922;5.346;2023-09-08T11:29:55;7.75;;;5.78;;
25913;SDS011;13718;50.922;5.346;2023-09-08T11:32:22;14.18;;;6.03;;
25913;SDS011;13718;50.922;5.346;2023-09-08T11:34:48;9.55;;;5.90;;
25913;SDS011;13718;50.922;5.346;2023-09-08T11:37:14;10.15;;;6.03;;
25913;SDS011;13718;50.922;5.346;2023-09-08T11:39:43;10.57;;;5.60;;
25913;SDS011;13718;50.922;5.346;2023-09-08T11:42:12;14.20;;;5.85;;
25913;SDS011;13718;50.922;5.346;2023-09-08T11:44:39;14.90;;;6.28;;
25913;SDS011;13718;50.922;5.346;2023-09-08T11:47:06;9.15;;;6.05;;
25913;SDS011;13718;50.922;5.346;2023-09-08T11:49:34;12.90;;;6.10;;
25913;SDS011;13718;50.922;5.346;2023-09-08T11:52:03;11.48;;;6.05;;
25913;SDS011;13718;50.922;5.346;2023-09-08T11:54:29;7.57;;;5.72;;
25913;SDS011;13718;50.922;5.346;2023-09-08T11:56:58;10.75;;;6.13;;
25913;SDS011;13718;50.922;5.346;2023-09-08T11:59:26;9.18;;;6.30;;
25913;SDS011;13718;50.922;5.346;2023-09-08T12:01:56;9.23;;;6.63;;
25913;SDS011;13718;50.922;5.346;2023-09-08T12:04:22;8.85;;;5.45;;
25913;SDS011;13718;50.922;5.346;2023-09-08T12:06:48;8.65;;;5.40;;
25913;SDS011;13718;50.922;5.346;2023-09-08T12:09:14;10.15;;;5.97;;
25913;SDS011;13718;50.922;5.346;2023-09-08T12:11:41;9.57;;;5.50;;
25913;SDS011;13718;50.922;5.346;2023-09-08T12:14:08;9.40;;;5.70;;
25913;SDS011;13718;50.922;5.346;2023-09-08T12:16:35;8.60;;;5.60;;
25913;SDS011;13718;50.922;5.346;2023-09-08T12:19:01;8.95;;;4.93;;
25913;SDS011;13718;50.922;5.346;2023-09-08T12:21:26;9.90;;;5.35;;
25913;SDS011;13718;50.922;5.346;2023-09-08T12:23:53;9.77;;;5.57;;
25913;SDS011;13718;50.922;5.346;2023-09-08T12:26:19;11.45;;;6.38;;
25913;SDS011;13718;50.922;5.346;2023-09-08T12:28:45;11.00;;;5.55;;
25913;SDS011;13718;50.922;5.346;2023-09-08T12:31:14;9.68;;;6.10;;
25913;SDS011;13718;50.922;5.346;2023-09-08T12:33:41;9.65;;;5.38;;
25913;SDS011;13718;50.922;5.346;2023-09-08T12:36:18;16.77;;;6.00;;
25913;SDS011;13718;50.922;5.346;2023-09-08T12:38:47;9.65;;;5.75;;
25913;SDS011;13718;50.922;5.346;2023-09-08T12:41:16;9.98;;;5.53;;
25913;SDS011;13718;50.922;5.346;2023-09-08T12:43:42;10.68;;;5.60;;
25913;SDS011;13718;50.922;5.346;2023-09-08T12:46:08;13.70;;;5.40;;
25913;SDS011;13718;50.922;5.346;2023-09-08T12:48:33;10.02;;;5.38;;
25913;SDS011;13718;50.922;5.346;2023-09-08T12:50:59;9.60;;;5.22;;
25913;SDS011;13718;50.922;5.346;2023-09-08T12:53:24;14.95;;;5.90;;
25913;SDS011;13718;50.922;5.346;2023-09-08T12:55:50;11.23;;;6.00;;
25913;SDS011;13718;50.922;5.346;2023-09-08T12:58:16;8.48;;;5.55;;
25913;SDS011;13718;50.922;5.346;2023-09-08T13:00:42;8.38;;;5.00;;
25913;SDS011;13718;50.922;5.346;2023-09-08T13:03:09;9.75;;;5.13;;
25913;SDS011;13718;50.922;5.346;2023-09-08T13:05:34;10.35;;;5.07;;
25913;SDS011;13718;50.922;5.346;2023-09-08T13:08:01;7.90;;;4.70;;
25913;SDS011;13718;50.922;5.346;2023-09-08T13:10:27;9.85;;;4.80;;
25913;SDS011;13718;50.922;5.346;2023-09-08T13:12:52;9.10;;;4.88;;
25913;SDS011;13718;50.922;5.346;2023-09-08T13:15:18;8.85;;;4.80;;
25913;SDS011;13718;50.922;5.346;2023-09-08T13:17:43;9.00;;;5.00;;
25913;SDS011;13718;50.922;5.346;2023-09-08T13:20:09;8.57;;;5.20;;
25913;SDS011;13718;50.922;5.346;2023-09-08T13:22:35;9.60;;;5.28;;
25913;SDS011;13718;50.922;5.346;2023-09-08T13:25:01;8.20;;;4.82;;
25913;SDS011;13718;50.922;5.346;2023-09-08T13:27:26;7.03;;;4.88;;
25913;SDS011;13718;50.922;5.346;2023-09-08T13:29:53;10.30;;;5.38;;
25913;SDS011;13718;50.922;5.346;2023-09-08T13:32:19;14.02;;;5.43;;
25913;SDS011;13718;50.922;5.346;2023-09-08T13:34:44;10.90;;;4.93;;
25913;SDS011;13718;50.922;5.346;2023-09-08T13:37:12;9.73;;;4.93;;
25913;SDS011;13718;50.922;5.346;2023-09-08T13:39:38;8.70;;;4.55;;
25913;SDS011;13718;50.922;5.346;2023-09-08T13:42:04;11.35;;;5.13;;
25913;SDS011;13718;50.922;5.346;2023-09-08T13:44:30;6.32;;;4.85;;
25913;SDS011;13718;50.922;5.346;2023-09-08T13:46:55;6.88;;;5.07;;
25913;SDS011;13718;50.922;5.346;2023-09-08T13:49:21;16.10;;;5.13;;
25913;SDS011;13718;50.922;5.346;2023-09-08T13:51:48;8.48;;;4.80;;
25913;SDS011;13718;50.922;5.346;2023-09-08T13:54:16;6.82;;;4.50;;
25913;SDS011;13718;50.922;5.346;2023-09-08T13:56:41;10.85;;;4.90;;
25913;SDS011;13718;50.922;5.346;2023-09-08T13:59:10;10.23;;;5.13;;
25913;SDS011;13718;50.922;5.346;2023-09-08T14:01:36;8.80;;;5.35;;
25913;SDS011;13718;50.922;5.346;2023-09-08T14:04:02;8.90;;;4.78;;
25913;SDS011;13718;50.922;5.346;2023-09-08T14:06:31;6.97;;;4.93;;
25913;SDS011;13718;50.922;5.346;2023-09-08T14:08:57;6.47;;;4.70;;
25913;SDS011;13718;50.922;5.346;2023-09-08T14:11:23;9.52;;;5.45;;
25913;SDS011;13718;50.922;5.346;2023-09-08T14:13:48;13.18;;;5.18;;
25913;SDS011;13718;50.922;5.346;2023-09-08T14:16:14;11.68;;;5.20;;
25913;SDS011;13718;50.922;5.346;2023-09-08T14:18:40;11.05;;;4.95;;
25913;SDS011;13718;50.922;5.346;2023-09-08T14:21:06;7.57;;;4.55;;
25913;SDS011;13718;50.922;5.346;2023-09-08T14:23:32;8.55;;;4.82;;
25913;SDS011;13718;50.922;5.346;2023-09-08T14:26:03;10.18;;;4.70;;
25913;SDS011;13718;50.922;5.346;2023-09-08T14:28:28;13.68;;;5.03;;
25913;SDS011;13718;50.922;5.346;2023-09-08T14:30:57;9.13;;;5.30;;
25913;SDS011;13718;50.922;5.346;2023-09-08T14:33:22;7.13;;;4.50;;